MTN8501 KFLL-KEYW
Flight info
| Callsign | MTN8501 |
|---|---|
| Flight time | 0h 58m |
| Altitude | 8000 |
| Route | MAYNR GUCEL |
| Aircraft | C208/L-SDFGR/C |
Departure
| Time | 2026-05-06 18:06 |
|---|---|
| Airport | Fort Lauderdale Hollywood International Airport (KFLL) |
Arrival
| Time | 2026-05-06 19:05 |
|---|---|
| Airport | Key West International Airport (KEYW) |
| Time | Latitude | Longitude | Altitude | Speed | Heading |
|---|---|---|---|---|---|
| 2026-05-06 17:55 | 26.07899 | -80.15583 | 14 ft | 0 kts | 90° |
| 2026-05-06 18:02 | 26.07899 | -80.15568 | 14 ft | 5 kts | 83° |
| 2026-05-06 18:02 | 26.07943 | -80.15570 | 14 ft | 13 kts | 276° |
| 2026-05-06 18:02 | 26.07927 | -80.15682 | 14 ft | 17 kts | 219° |
| 2026-05-06 18:02 | 26.07820 | -80.15707 | 15 ft | 13 kts | 235° |
| 2026-05-06 18:03 | 26.07814 | -80.15802 | 15 ft | 12 kts | 270° |
| 2026-05-06 18:03 | 26.07813 | -80.15919 | 15 ft | 18 kts | 270° |
| 2026-05-06 18:03 | 26.07815 | -80.16072 | 15 ft | 22 kts | 271° |
| 2026-05-06 18:03 | 26.07817 | -80.16256 | 15 ft | 25 kts | 273° |
| 2026-05-06 18:04 | 26.07806 | -80.16453 | 15 ft | 24 kts | 269° |
| 2026-05-06 18:04 | 26.07805 | -80.16593 | 15 ft | 12 kts | 268° |
| 2026-05-06 18:04 | 26.07771 | -80.16637 | 16 ft | 7 kts | 182° |
| 2026-05-06 18:04 | 26.07707 | -80.16629 | 16 ft | 11 kts | 139° |
| 2026-05-06 18:05 | 26.07696 | -80.16536 | 17 ft | 15 kts | 90° |
| 2026-05-06 18:05 | 26.07693 | -80.16368 | 19 ft | 32 kts | 90° |
| 2026-05-06 18:05 | 26.07692 | -80.16034 | 17 ft | 56 kts | 90° |
| 2026-05-06 18:05 | 26.07691 | -80.15477 | 37 ft | 84 kts | 90° |
| 2026-05-06 18:06 | 26.07690 | -80.14797 | 147 ft | 93 kts | 91° |
| 2026-05-06 18:06 | 26.07681 | -80.14025 | 291 ft | 102 kts | 91° |
| 2026-05-06 18:06 | 26.07653 | -80.13264 | 569 ft | 96 kts | 89° |
| 2026-05-06 18:06 | 26.07566 | -80.12540 | 763 ft | 97 kts | 111° |
| 2026-05-06 18:07 | 26.07111 | -80.11969 | 1025 ft | 99 kts | 147° |
| 2026-05-06 18:07 | 26.06455 | -80.11792 | 1344 ft | 102 kts | 178° |
| 2026-05-06 18:07 | 26.05739 | -80.11956 | 1539 ft | 109 kts | 199° |
| 2026-05-06 18:07 | 26.05043 | -80.12317 | 1712 ft | 113 kts | 202° |
| 2026-05-06 18:08 | 26.04314 | -80.12687 | 1801 ft | 120 kts | 199° |
| 2026-05-06 18:08 | 26.03535 | -80.13000 | 2005 ft | 117 kts | 195° |
| 2026-05-06 18:08 | 26.02776 | -80.13284 | 2226 ft | 116 kts | 195° |
| 2026-05-06 18:08 | 26.02011 | -80.13558 | 2460 ft | 113 kts | 195° |
| 2026-05-06 18:09 | 26.01257 | -80.13821 | 2650 ft | 114 kts | 198° |
| 2026-05-06 18:09 | 26.00508 | -80.14116 | 2835 ft | 114 kts | 196° |
| 2026-05-06 18:09 | 25.99755 | -80.14389 | 3021 ft | 114 kts | 195° |
| 2026-05-06 18:09 | 25.98997 | -80.14668 | 3189 ft | 116 kts | 196° |
| 2026-05-06 18:10 | 25.98216 | -80.14960 | 3334 ft | 120 kts | 197° |
| 2026-05-06 18:10 | 25.97422 | -80.15254 | 3494 ft | 122 kts | 196° |
| 2026-05-06 18:10 | 25.96609 | -80.15538 | 3675 ft | 122 kts | 197° |
| 2026-05-06 18:10 | 25.95822 | -80.15828 | 3893 ft | 118 kts | 196° |
| 2026-05-06 18:11 | 25.95039 | -80.16098 | 4066 ft | 118 kts | 196° |
| 2026-05-06 18:11 | 25.94261 | -80.16389 | 4238 ft | 118 kts | 198° |
| 2026-05-06 18:11 | 25.93473 | -80.16696 | 4392 ft | 121 kts | 199° |
| 2026-05-06 18:11 | 25.92676 | -80.16981 | 4532 ft | 124 kts | 196° |
| 2026-05-06 18:12 | 25.91845 | -80.17285 | 4703 ft | 127 kts | 198° |
| 2026-05-06 18:12 | 25.91003 | -80.17592 | 4868 ft | 128 kts | 197° |
| 2026-05-06 18:12 | 25.90157 | -80.17883 | 5062 ft | 127 kts | 198° |
| 2026-05-06 18:12 | 25.89313 | -80.18189 | 5215 ft | 128 kts | 198° |
| 2026-05-06 18:13 | 25.88459 | -80.18493 | 5375 ft | 129 kts | 197° |
| 2026-05-06 18:13 | 25.87605 | -80.18807 | 5538 ft | 130 kts | 199° |
| 2026-05-06 18:13 | 25.86747 | -80.19142 | 5698 ft | 131 kts | 200° |
| 2026-05-06 18:13 | 25.85891 | -80.19500 | 5861 ft | 132 kts | 199° |
| 2026-05-06 18:14 | 25.85035 | -80.19855 | 6042 ft | 131 kts | 199° |
| 2026-05-06 18:14 | 25.84178 | -80.20193 | 6199 ft | 131 kts | 198° |
| 2026-05-06 18:14 | 25.83312 | -80.20515 | 6369 ft | 131 kts | 197° |
| 2026-05-06 18:14 | 25.82440 | -80.20830 | 6504 ft | 133 kts | 197° |
| 2026-05-06 18:15 | 25.81569 | -80.21156 | 6623 ft | 134 kts | 198° |
| 2026-05-06 18:15 | 25.80680 | -80.21483 | 6751 ft | 135 kts | 197° |
| 2026-05-06 18:15 | 25.79773 | -80.21782 | 6870 ft | 136 kts | 194° |
| 2026-05-06 18:15 | 25.78862 | -80.22092 | 6992 ft | 138 kts | 197° |
| 2026-05-06 18:16 | 25.77947 | -80.22423 | 7123 ft | 138 kts | 197° |
| 2026-05-06 18:16 | 25.77023 | -80.22747 | 7246 ft | 140 kts | 196° |
| 2026-05-06 18:16 | 25.76094 | -80.23072 | 7372 ft | 140 kts | 198° |
| 2026-05-06 18:16 | 25.75168 | -80.23435 | 7499 ft | 141 kts | 200° |
| 2026-05-06 18:17 | 25.74241 | -80.23812 | 7627 ft | 142 kts | 201° |
| 2026-05-06 18:17 | 25.73318 | -80.24182 | 7749 ft | 143 kts | 199° |
| 2026-05-06 18:17 | 25.72374 | -80.24546 | 7887 ft | 143 kts | 199° |
| 2026-05-06 18:17 | 25.71429 | -80.24912 | 8015 ft | 144 kts | 198° |
| 2026-05-06 18:18 | 25.70467 | -80.25260 | 8159 ft | 145 kts | 197° |
| 2026-05-06 18:18 | 25.69510 | -80.25591 | 8313 ft | 144 kts | 198° |
| 2026-05-06 18:18 | 25.68547 | -80.25924 | 8433 ft | 146 kts | 197° |
| 2026-05-06 18:18 | 25.67572 | -80.26251 | 8563 ft | 147 kts | 198° |
| 2026-05-06 18:19 | 25.66601 | -80.26600 | 8713 ft | 146 kts | 198° |
| 2026-05-06 18:19 | 25.65654 | -80.26941 | 8873 ft | 143 kts | 198° |
| 2026-05-06 18:19 | 25.64706 | -80.27280 | 9050 ft | 140 kts | 199° |
| 2026-05-06 18:19 | 25.63799 | -80.27620 | 9199 ft | 138 kts | 199° |
| 2026-05-06 18:20 | 25.62888 | -80.27953 | 9319 ft | 138 kts | 199° |
| 2026-05-06 18:20 | 25.61968 | -80.28295 | 9419 ft | 140 kts | 199° |
| 2026-05-06 18:20 | 25.61046 | -80.28632 | 9551 ft | 139 kts | 198° |
| 2026-05-06 18:20 | 25.60127 | -80.28980 | 9654 ft | 140 kts | 200° |
| 2026-05-06 18:21 | 25.59208 | -80.29351 | 9765 ft | 141 kts | 200° |
| 2026-05-06 18:21 | 25.58287 | -80.29718 | 9888 ft | 141 kts | 200° |
| 2026-05-06 18:21 | 25.57359 | -80.30081 | 9987 ft | 142 kts | 198° |
| 2026-05-06 18:21 | 25.56392 | -80.30414 | 10015 ft | 149 kts | 196° |
| 2026-05-06 18:22 | 25.55378 | -80.30740 | 10047 ft | 155 kts | 197° |
| 2026-05-06 18:22 | 25.54339 | -80.31104 | 10026 ft | 162 kts | 199° |
| 2026-05-06 18:22 | 25.53256 | -80.31500 | 10002 ft | 166 kts | 199° |
| 2026-05-06 18:22 | 25.52149 | -80.31910 | 9991 ft | 169 kts | 199° |
| 2026-05-06 18:23 | 25.51028 | -80.32326 | 9983 ft | 171 kts | 199° |
| 2026-05-06 18:23 | 25.49895 | -80.32745 | 9981 ft | 172 kts | 199° |
| 2026-05-06 18:23 | 25.48762 | -80.33163 | 9976 ft | 172 kts | 199° |
| 2026-05-06 18:23 | 25.47625 | -80.33581 | 9977 ft | 172 kts | 199° |
| 2026-05-06 18:24 | 25.46487 | -80.33998 | 9979 ft | 172 kts | 199° |
| 2026-05-06 18:24 | 25.45348 | -80.34415 | 9983 ft | 173 kts | 199° |
| 2026-05-06 18:24 | 25.44206 | -80.34834 | 9983 ft | 173 kts | 199° |
| 2026-05-06 18:24 | 25.43060 | -80.35255 | 9980 ft | 173 kts | 199° |
| 2026-05-06 18:25 | 25.41914 | -80.35676 | 9979 ft | 173 kts | 199° |
| 2026-05-06 18:25 | 25.40788 | -80.36090 | 9979 ft | 173 kts | 199° |
| 2026-05-06 18:25 | 25.39647 | -80.36509 | 9977 ft | 172 kts | 199° |
| 2026-05-06 18:25 | 25.38509 | -80.36926 | 9979 ft | 172 kts | 198° |
| 2026-05-06 18:26 | 25.37368 | -80.37344 | 9980 ft | 172 kts | 198° |
| 2026-05-06 18:26 | 25.36231 | -80.37759 | 9981 ft | 172 kts | 198° |
| 2026-05-06 18:26 | 25.35095 | -80.38176 | 9982 ft | 172 kts | 199° |
| 2026-05-06 18:26 | 25.33962 | -80.38591 | 9981 ft | 172 kts | 198° |
| 2026-05-06 18:27 | 25.32827 | -80.39009 | 9980 ft | 172 kts | 199° |
| 2026-05-06 18:27 | 25.31690 | -80.39425 | 9984 ft | 172 kts | 199° |
| 2026-05-06 18:27 | 25.30551 | -80.39843 | 9981 ft | 173 kts | 199° |
| 2026-05-06 18:27 | 25.29410 | -80.40262 | 9981 ft | 173 kts | 199° |
| 2026-05-06 18:28 | 25.28264 | -80.40680 | 9982 ft | 173 kts | 198° |
| 2026-05-06 18:28 | 25.27119 | -80.41099 | 9981 ft | 174 kts | 199° |
| 2026-05-06 18:28 | 25.25980 | -80.41512 | 9977 ft | 174 kts | 199° |
| 2026-05-06 18:28 | 25.24832 | -80.41933 | 9972 ft | 174 kts | 199° |
| 2026-05-06 18:29 | 25.23686 | -80.42354 | 9972 ft | 173 kts | 199° |
| 2026-05-06 18:29 | 25.22544 | -80.42771 | 9972 ft | 173 kts | 199° |
| 2026-05-06 18:29 | 25.21401 | -80.43189 | 9983 ft | 174 kts | 199° |
| 2026-05-06 18:29 | 25.20250 | -80.43611 | 9975 ft | 174 kts | 199° |
| 2026-05-06 18:30 | 25.19100 | -80.44035 | 9985 ft | 175 kts | 199° |
| 2026-05-06 18:30 | 25.17940 | -80.44458 | 9988 ft | 177 kts | 198° |
| 2026-05-06 18:30 | 25.16769 | -80.44884 | 9973 ft | 177 kts | 198° |
| 2026-05-06 18:30 | 25.15614 | -80.45306 | 9965 ft | 176 kts | 199° |
| 2026-05-06 18:31 | 25.14450 | -80.45731 | 9972 ft | 176 kts | 198° |
| 2026-05-06 18:31 | 25.13285 | -80.46155 | 9969 ft | 176 kts | 198° |
| 2026-05-06 18:31 | 25.12124 | -80.46580 | 9964 ft | 175 kts | 199° |
| 2026-05-06 18:31 | 25.10971 | -80.47001 | 9965 ft | 174 kts | 198° |
| 2026-05-06 18:32 | 25.09823 | -80.47420 | 9970 ft | 173 kts | 199° |
| 2026-05-06 18:32 | 25.08679 | -80.47838 | 9971 ft | 173 kts | 198° |
| 2026-05-06 18:32 | 25.07535 | -80.48256 | 9972 ft | 172 kts | 198° |
| 2026-05-06 18:32 | 25.06412 | -80.48665 | 9974 ft | 172 kts | 198° |
| 2026-05-06 18:33 | 25.05274 | -80.49079 | 9977 ft | 172 kts | 198° |
| 2026-05-06 18:33 | 25.04133 | -80.49497 | 9999 ft | 174 kts | 198° |
| 2026-05-06 18:33 | 25.02970 | -80.49919 | 9995 ft | 177 kts | 198° |
| 2026-05-06 18:33 | 25.01792 | -80.50347 | 9983 ft | 179 kts | 198° |
| 2026-05-06 18:34 | 25.00610 | -80.50778 | 9964 ft | 178 kts | 198° |
| 2026-05-06 18:34 | 24.99437 | -80.51206 | 9960 ft | 177 kts | 198° |
| 2026-05-06 18:34 | 24.98274 | -80.51630 | 9964 ft | 175 kts | 199° |
| 2026-05-06 18:34 | 24.97119 | -80.52051 | 9965 ft | 174 kts | 198° |
| 2026-05-06 18:35 | 24.95972 | -80.52469 | 9968 ft | 173 kts | 198° |
| 2026-05-06 18:35 | 24.94825 | -80.52886 | 9967 ft | 173 kts | 198° |
| 2026-05-06 18:35 | 24.93684 | -80.53302 | 9970 ft | 173 kts | 198° |
| 2026-05-06 18:35 | 24.92544 | -80.53717 | 9968 ft | 172 kts | 198° |
| 2026-05-06 18:36 | 24.91406 | -80.54130 | 9973 ft | 172 kts | 198° |
| 2026-05-06 18:36 | 24.90284 | -80.54538 | 9970 ft | 172 kts | 198° |
| 2026-05-06 18:36 | 24.89149 | -80.54951 | 9972 ft | 172 kts | 198° |
| 2026-05-06 18:36 | 24.88012 | -80.55370 | 9972 ft | 172 kts | 200° |
| 2026-05-06 18:37 | 24.86882 | -80.55810 | 9971 ft | 172 kts | 200° |
| 2026-05-06 18:37 | 24.86134 | -80.56098 | 9969 ft | 172 kts | 200° |
| 2026-05-06 18:37 | 24.84617 | -80.56668 | 9971 ft | 172 kts | 199° |
| 2026-05-06 18:37 | 24.83481 | -80.57093 | 9968 ft | 172 kts | 202° |
| 2026-05-06 18:38 | 24.82468 | -80.57772 | 9971 ft | 170 kts | 225° |
| 2026-05-06 18:38 | 24.81753 | -80.58794 | 9972 ft | 168 kts | 246° |
| 2026-05-06 18:38 | 24.81372 | -80.59995 | 9974 ft | 166 kts | 258° |
| 2026-05-06 18:38 | 24.81066 | -80.61206 | 9973 ft | 166 kts | 257° |
| 2026-05-06 18:39 | 24.80751 | -80.62431 | 9970 ft | 166 kts | 257° |
| 2026-05-06 18:39 | 24.80436 | -80.63658 | 9968 ft | 166 kts | 258° |
| 2026-05-06 18:39 | 24.80121 | -80.64884 | 9970 ft | 166 kts | 257° |
| 2026-05-06 18:40 | 24.79495 | -80.67320 | 9974 ft | 166 kts | 257° |
| 2026-05-06 18:40 | 24.79179 | -80.68545 | 9971 ft | 166 kts | 257° |
| 2026-05-06 18:40 | 24.78863 | -80.69771 | 9974 ft | 166 kts | 257° |
| 2026-05-06 18:40 | 24.78547 | -80.70997 | 9976 ft | 166 kts | 257° |
| 2026-05-06 18:41 | 24.78230 | -80.72225 | 9974 ft | 167 kts | 257° |
| 2026-05-06 18:41 | 24.77913 | -80.73451 | 9976 ft | 167 kts | 257° |
| 2026-05-06 18:41 | 24.77703 | -80.74265 | 9973 ft | 167 kts | 257° |
| 2026-05-06 18:41 | 24.77385 | -80.75493 | 9976 ft | 167 kts | 257° |
| 2026-05-06 18:42 | 24.77066 | -80.76724 | 9977 ft | 167 kts | 257° |
| 2026-05-06 18:42 | 24.76748 | -80.77958 | 9979 ft | 167 kts | 257° |
| 2026-05-06 18:42 | 24.76430 | -80.79188 | 9979 ft | 167 kts | 257° |
| 2026-05-06 18:42 | 24.76111 | -80.80417 | 9978 ft | 167 kts | 257° |
| 2026-05-06 18:43 | 24.75792 | -80.81645 | 9980 ft | 167 kts | 257° |
| 2026-05-06 18:43 | 24.75474 | -80.82873 | 9980 ft | 167 kts | 257° |
| 2026-05-06 18:43 | 24.75156 | -80.84099 | 9981 ft | 167 kts | 257° |
| 2026-05-06 18:43 | 24.74837 | -80.85326 | 9981 ft | 166 kts | 257° |
| 2026-05-06 18:44 | 24.74523 | -80.86534 | 9983 ft | 166 kts | 257° |
| 2026-05-06 18:44 | 24.74205 | -80.87760 | 9984 ft | 166 kts | 257° |
| 2026-05-06 18:44 | 24.73888 | -80.88984 | 9984 ft | 166 kts | 257° |
| 2026-05-06 18:44 | 24.73570 | -80.90207 | 9985 ft | 166 kts | 257° |
| 2026-05-06 18:45 | 24.73251 | -80.91432 | 9988 ft | 166 kts | 257° |
| 2026-05-06 18:45 | 24.72934 | -80.92654 | 9986 ft | 166 kts | 257° |
| 2026-05-06 18:45 | 24.72615 | -80.93880 | 9988 ft | 167 kts | 257° |
| 2026-05-06 18:45 | 24.72296 | -80.95105 | 9986 ft | 167 kts | 257° |
| 2026-05-06 18:46 | 24.71978 | -80.96328 | 9991 ft | 167 kts | 257° |
| 2026-05-06 18:46 | 24.71659 | -80.97555 | 9988 ft | 167 kts | 257° |
| 2026-05-06 18:46 | 24.71343 | -80.98767 | 9990 ft | 167 kts | 257° |
| 2026-05-06 18:46 | 24.71023 | -80.99996 | 9989 ft | 167 kts | 257° |
| 2026-05-06 18:47 | 24.70704 | -81.01221 | 9990 ft | 167 kts | 257° |
| 2026-05-06 18:47 | 24.70385 | -81.02446 | 9990 ft | 167 kts | 257° |
| 2026-05-06 18:47 | 24.70065 | -81.03673 | 9991 ft | 167 kts | 257° |
| 2026-05-06 18:47 | 24.69745 | -81.04899 | 9991 ft | 167 kts | 257° |
| 2026-05-06 18:48 | 24.69425 | -81.06124 | 9990 ft | 167 kts | 257° |
| 2026-05-06 18:48 | 24.69104 | -81.07351 | 9991 ft | 167 kts | 257° |
| 2026-05-06 18:48 | 24.68780 | -81.08581 | 9971 ft | 169 kts | 257° |
| 2026-05-06 18:48 | 24.68458 | -81.09828 | 9735 ft | 170 kts | 257° |
| 2026-05-06 18:49 | 24.68138 | -81.11074 | 9483 ft | 169 kts | 257° |
| 2026-05-06 18:49 | 24.67817 | -81.12312 | 9225 ft | 168 kts | 256° |
| 2026-05-06 18:49 | 24.67494 | -81.13545 | 8977 ft | 167 kts | 256° |
| 2026-05-06 18:49 | 24.67171 | -81.14773 | 8731 ft | 167 kts | 256° |
| 2026-05-06 18:50 | 24.66848 | -81.16001 | 8484 ft | 167 kts | 256° |
| 2026-05-06 18:50 | 24.66531 | -81.17210 | 8242 ft | 167 kts | 255° |
| 2026-05-06 18:50 | 24.66211 | -81.18432 | 8049 ft | 163 kts | 255° |
| 2026-05-06 18:50 | 24.65903 | -81.19592 | 8012 ft | 153 kts | 255° |
| 2026-05-06 18:51 | 24.65610 | -81.20687 | 7996 ft | 147 kts | 255° |
| 2026-05-06 18:51 | 24.65317 | -81.21779 | 7992 ft | 151 kts | 255° |
| 2026-05-06 18:51 | 24.65019 | -81.22906 | 7990 ft | 156 kts | 255° |
| 2026-05-06 18:51 | 24.64744 | -81.24069 | 7989 ft | 159 kts | 259° |
| 2026-05-06 18:52 | 24.64542 | -81.25254 | 7984 ft | 161 kts | 261° |
| 2026-05-06 18:52 | 24.64334 | -81.26477 | 7905 ft | 165 kts | 261° |
| 2026-05-06 18:52 | 24.64119 | -81.27730 | 7739 ft | 167 kts | 260° |
| 2026-05-06 18:52 | 24.63899 | -81.28993 | 7570 ft | 169 kts | 260° |
| 2026-05-06 18:53 | 24.63677 | -81.30264 | 7401 ft | 170 kts | 260° |
| 2026-05-06 18:53 | 24.63455 | -81.31540 | 7236 ft | 170 kts | 259° |
| 2026-05-06 18:53 | 24.63231 | -81.32818 | 7071 ft | 170 kts | 259° |
| 2026-05-06 18:53 | 24.63009 | -81.34091 | 6901 ft | 169 kts | 259° |
| 2026-05-06 18:54 | 24.62792 | -81.35336 | 6708 ft | 163 kts | 258° |
| 2026-05-06 18:54 | 24.62583 | -81.36525 | 6523 ft | 159 kts | 258° |
| 2026-05-06 18:54 | 24.62373 | -81.37709 | 6327 ft | 157 kts | 258° |
| 2026-05-06 18:54 | 24.62165 | -81.38879 | 6131 ft | 156 kts | 258° |
| 2026-05-06 18:55 | 24.61959 | -81.40047 | 5936 ft | 155 kts | 258° |
| 2026-05-06 18:55 | 24.61756 | -81.41207 | 5743 ft | 155 kts | 258° |
| 2026-05-06 18:55 | 24.61553 | -81.42367 | 5549 ft | 154 kts | 258° |
| 2026-05-06 18:55 | 24.61350 | -81.43524 | 5359 ft | 154 kts | 258° |
| 2026-05-06 18:56 | 24.61148 | -81.44678 | 5170 ft | 154 kts | 258° |
| 2026-05-06 18:56 | 24.60945 | -81.45833 | 4981 ft | 154 kts | 258° |
| 2026-05-06 18:56 | 24.60743 | -81.46985 | 4802 ft | 153 kts | 258° |
| 2026-05-06 18:56 | 24.60542 | -81.48125 | 4654 ft | 150 kts | 258° |
| 2026-05-06 18:57 | 24.60344 | -81.49247 | 4506 ft | 149 kts | 258° |
| 2026-05-06 18:57 | 24.60148 | -81.50364 | 4356 ft | 148 kts | 258° |
| 2026-05-06 18:57 | 24.59954 | -81.51463 | 4211 ft | 148 kts | 258° |
| 2026-05-06 18:57 | 24.59759 | -81.52572 | 4067 ft | 147 kts | 258° |
| 2026-05-06 18:58 | 24.59564 | -81.53678 | 3919 ft | 147 kts | 258° |
| 2026-05-06 18:58 | 24.59369 | -81.54785 | 3775 ft | 148 kts | 258° |
| 2026-05-06 18:58 | 24.59174 | -81.55893 | 3637 ft | 148 kts | 258° |
| 2026-05-06 18:58 | 24.58978 | -81.56999 | 3500 ft | 147 kts | 258° |
| 2026-05-06 18:59 | 24.58784 | -81.58097 | 3384 ft | 146 kts | 258° |
| 2026-05-06 18:59 | 24.58591 | -81.59189 | 3267 ft | 145 kts | 258° |
| 2026-05-06 18:59 | 24.58399 | -81.60279 | 3140 ft | 145 kts | 258° |
| 2026-05-06 18:59 | 24.58207 | -81.61369 | 3017 ft | 145 kts | 258° |
| 2026-05-06 19:00 | 24.58014 | -81.62459 | 2902 ft | 146 kts | 258° |
| 2026-05-06 19:00 | 24.57820 | -81.63540 | 2810 ft | 147 kts | 258° |
| 2026-05-06 19:00 | 24.57627 | -81.64649 | 2706 ft | 148 kts | 258° |
| 2026-05-06 19:00 | 24.57432 | -81.65760 | 2596 ft | 148 kts | 257° |
| 2026-05-06 19:01 | 24.57243 | -81.66879 | 2524 ft | 149 kts | 258° |
| 2026-05-06 19:01 | 24.57045 | -81.68003 | 2418 ft | 150 kts | 257° |
| 2026-05-06 19:01 | 24.56841 | -81.69114 | 2297 ft | 147 kts | 257° |
| 2026-05-06 19:01 | 24.56642 | -81.70207 | 2172 ft | 145 kts | 257° |
| 2026-05-06 19:02 | 24.56448 | -81.71302 | 2086 ft | 147 kts | 257° |
| 2026-05-06 19:02 | 24.56310 | -81.72391 | 1946 ft | 146 kts | 265° |
| 2026-05-06 19:02 | 24.56311 | -81.73525 | 1652 ft | 153 kts | 269° |
| 2026-05-06 19:02 | 24.56350 | -81.74701 | 1374 ft | 150 kts | 273° |
| 2026-05-06 19:03 | 24.56430 | -81.75779 | 1333 ft | 127 kts | 275° |
| 2026-05-06 19:03 | 24.56509 | -81.76678 | 1249 ft | 114 kts | 275° |
| 2026-05-06 19:03 | 24.56586 | -81.77532 | 1131 ft | 109 kts | 275° |
| 2026-05-06 19:03 | 24.56339 | -81.78271 | 913 ft | 105 kts | 218° |
| 2026-05-06 19:04 | 24.55687 | -81.78426 | 726 ft | 92 kts | 172° |
| 2026-05-06 19:04 | 24.55309 | -81.78006 | 594 ft | 82 kts | 89° |
| 2026-05-06 19:04 | 24.55591 | -81.77422 | 265 ft | 87 kts | 79° |
| 2026-05-06 19:04 | 24.55606 | -81.76801 | 64 ft | 77 kts | 93° |
| 2026-05-06 19:05 | 24.55611 | -81.76285 | 6 ft | 58 kts | 90° |
| 2026-05-06 19:05 | 24.55614 | -81.75955 | 11 ft | 34 kts | 89° |
| 2026-05-06 19:05 | 24.55616 | -81.75710 | 13 ft | 27 kts | 89° |
| 2026-05-06 19:05 | 24.55571 | -81.75590 | 15 ft | 16 kts | 178° |
| 2026-05-06 19:06 | 24.55531 | -81.75550 | 15 ft | 11 kts | 89° |
| 2026-05-06 19:06 | 24.55532 | -81.75474 | 15 ft | 10 kts | 89° |
| 2026-05-06 19:06 | 24.55527 | -81.75391 | 16 ft | 10 kts | 130° |
| 2026-05-06 19:06 | 24.55491 | -81.75347 | 16 ft | 8 kts | 132° |
| 2026-05-06 19:07 | 24.55418 | -81.75342 | 16 ft | 12 kts | 181° |
| 2026-05-06 19:07 | 24.55396 | -81.75367 | 15 ft | 0 kts | 269° |